createdAt,value
2023-05-19T00:01:55.108Z,4.05
2023-05-19T00:04:58.350Z,3.70
2023-05-19T00:08:03.187Z,3.63
2023-05-19T00:11:06.289Z,3.63
2023-05-19T00:14:09.568Z,3.42
2023-05-19T00:17:11.782Z,4.13
2023-05-19T00:20:14.451Z,3.87
2023-05-19T00:23:16.519Z,3.60
2023-05-19T00:26:18.600Z,3.50
2023-05-19T00:29:30.111Z,3.47
2023-05-19T00:32:32.440Z,2.90
2023-05-19T00:35:34.566Z,2.58
2023-05-19T00:38:37.198Z,3.08
2023-05-19T00:41:39.284Z,3.78
2023-05-19T00:44:41.912Z,3.40
2023-05-19T00:47:44.238Z,3.40
2023-05-19T00:50:46.512Z,3.58
2023-05-19T00:53:49.220Z,3.38
2023-05-19T00:56:51.570Z,3.23
2023-05-19T00:59:53.860Z,3.53
2023-05-19T01:02:56.329Z,3.47
2023-05-19T01:06:01.818Z,3.17
2023-05-19T01:09:04.183Z,3.78
2023-05-19T01:12:06.445Z,4.00
2023-05-19T01:15:10.028Z,4.10
2023-05-19T01:18:14.376Z,3.45
2023-05-19T01:21:36.558Z,3.92
2023-05-19T01:24:57.046Z,3.43
2023-05-19T01:28:08.076Z,3.50
2023-05-19T01:31:11.867Z,3.58
2023-05-19T01:34:14.623Z,4.72
2023-05-19T01:37:17.508Z,4.13
2023-05-19T01:40:21.875Z,3.60
2023-05-19T01:43:25.450Z,3.67
2023-05-19T01:46:27.989Z,4.57
2023-05-19T01:49:30.228Z,3.58
2023-05-19T01:52:32.792Z,4.03
2023-05-19T01:55:43.056Z,4.22
2023-05-19T01:58:51.563Z,3.87
2023-05-19T02:01:54.507Z,3.53
2023-05-19T02:05:00.526Z,3.72
2023-05-19T02:08:13.178Z,4.70
2023-05-19T02:11:26.123Z,4.43
2023-05-19T02:14:34.413Z,4.57
2023-05-19T02:17:38.433Z,4.55
2023-05-19T02:20:40.785Z,4.88
2023-05-19T02:23:43.314Z,4.30
2023-05-19T02:26:45.424Z,4.32
2023-05-19T02:29:47.505Z,4.75
2023-05-19T02:32:49.616Z,5.05
2023-05-19T02:35:51.651Z,4.17
2023-05-19T02:38:53.880Z,4.15
2023-05-19T02:41:56.465Z,4.90
2023-05-19T02:44:58.586Z,4.97
2023-05-19T02:48:00.902Z,4.20
2023-05-19T02:51:03.087Z,4.80
2023-05-19T02:54:05.330Z,4.80
2023-05-19T02:57:07.385Z,4.53
2023-05-19T03:00:09.890Z,4.05
2023-05-19T03:03:12.005Z,4.50
2023-05-19T03:06:14.406Z,5.63
2023-05-19T03:09:16.589Z,4.50
2023-05-19T03:12:18.612Z,5.43
2023-05-19T03:15:23.022Z,4.50
2023-05-19T03:18:26.373Z,4.60
2023-05-19T03:21:28.718Z,4.43
2023-05-19T03:24:30.833Z,4.33
2023-05-19T03:27:33.114Z,4.22
2023-05-19T03:30:35.242Z,4.40
2023-05-19T03:33:50.199Z,3.40
2023-05-19T03:36:52.321Z,5.13
2023-05-19T03:39:56.232Z,5.10
2023-05-19T03:42:58.455Z,3.63
2023-05-19T03:46:00.696Z,3.87
2023-05-19T03:49:26.045Z,3.50
2023-05-19T03:52:40.308Z,3.55
2023-05-19T03:55:55.561Z,3.90
2023-05-19T03:58:57.704Z,4.70
2023-05-19T04:01:59.813Z,3.35
2023-05-19T04:05:04.789Z,4.20
2023-05-19T04:08:06.833Z,3.13
2023-05-19T04:11:09.190Z,3.47
2023-05-19T04:14:11.224Z,3.75
2023-05-19T04:17:13.336Z,4.57
2023-05-19T04:20:15.737Z,3.42
2023-05-19T04:23:17.759Z,3.20
2023-05-19T04:26:21.876Z,3.70
2023-05-19T04:29:24.362Z,4.03
2023-05-19T04:32:26.547Z,5.25
2023-05-19T04:35:30.269Z,3.50
2023-05-19T04:38:34.914Z,3.50
2023-05-19T04:41:40.310Z,3.75
2023-05-19T04:44:42.551Z,4.07
2023-05-19T04:47:47.029Z,4.33
2023-05-19T04:50:49.663Z,4.22
2023-05-19T04:53:52.641Z,4.03
2023-05-19T04:56:55.447Z,4.10
2023-05-19T05:00:01.924Z,3.97
2023-05-19T05:03:14.684Z,4.05
2023-05-19T05:06:16.876Z,4.30
2023-05-19T05:09:20.258Z,5.60
2023-05-19T05:12:22.638Z,4.73
2023-05-19T05:15:25.179Z,4.35
2023-05-19T05:18:27.835Z,3.85
2023-05-19T05:21:31.964Z,3.67
2023-05-19T05:24:35.069Z,5.80
2023-05-19T05:27:39.206Z,4.32
2023-05-19T05:30:43.986Z,4.25
2023-05-19T05:33:46.729Z,4.47
2023-05-19T05:36:50.121Z,3.97
2023-05-19T05:39:53.613Z,3.90
2023-05-19T05:42:56.462Z,3.80
2023-05-19T05:46:00.793Z,3.80
2023-05-19T05:49:03.251Z,3.60
2023-05-19T05:52:07.052Z,3.20
2023-05-19T05:55:17.747Z,4.28
2023-05-19T05:58:21.600Z,4.70
2023-05-19T06:01:24.197Z,4.33
2023-05-19T06:04:28.471Z,4.40
2023-05-19T06:07:31.007Z,3.40
2023-05-19T06:10:33.501Z,3.97
2023-05-19T06:13:36.957Z,3.33
2023-05-19T06:16:42.081Z,5.03
2023-05-19T06:19:44.610Z,3.53
2023-05-19T06:22:46.798Z,3.88
2023-05-19T06:25:50.344Z,3.92
2023-05-19T06:28:52.875Z,3.50
2023-05-19T06:31:56.507Z,4.90
2023-05-19T06:34:58.990Z,4.38
2023-05-19T06:38:01.292Z,4.55
2023-05-19T06:41:04.047Z,4.40
2023-05-19T06:44:07.190Z,4.73
2023-05-19T06:47:10.331Z,3.87
2023-05-19T06:50:13.830Z,6.10
2023-05-19T06:53:19.305Z,4.78
2023-05-19T06:56:23.104Z,4.35
2023-05-19T06:59:26.371Z,5.30
2023-05-19T07:02:29.055Z,5.37
2023-05-19T07:05:31.370Z,4.43
2023-05-19T07:08:37.362Z,4.82
2023-05-19T07:11:41.348Z,5.50
2023-05-19T07:14:45.411Z,5.40
2023-05-19T07:17:48.471Z,4.33
2023-05-19T07:20:51.995Z,4.75
2023-05-19T07:23:54.157Z,4.53
2023-05-19T07:26:56.427Z,4.32
2023-05-19T07:29:58.896Z,3.47
2023-05-19T07:33:01.028Z,5.00
2023-05-19T07:36:03.507Z,4.88
2023-05-19T07:39:06.002Z,3.75
2023-05-19T07:42:08.316Z,3.95
2023-05-19T07:45:10.912Z,4.03
2023-05-19T07:48:13.110Z,4.30
2023-05-19T07:51:16.301Z,3.55
2023-05-19T07:54:18.520Z,3.55
2023-05-19T07:57:21.046Z,4.18
2023-05-19T08:00:23.505Z,4.60
2023-05-19T08:03:27.590Z,6.43
2023-05-19T08:06:46.295Z,3.50
2023-05-19T08:09:48.729Z,3.70
2023-05-19T08:12:51.009Z,3.10
2023-05-19T08:15:55.077Z,4.10
2023-05-19T08:18:57.256Z,3.93
2023-05-19T08:22:01.459Z,4.10
2023-05-19T08:25:06.247Z,4.22
2023-05-19T08:28:08.391Z,4.10
2023-05-19T08:31:11.001Z,2.70
2023-05-19T08:34:13.244Z,3.47
2023-05-19T08:37:15.736Z,4.03
2023-05-19T08:40:18.546Z,3.22
2023-05-19T08:43:20.727Z,3.97
2023-05-19T08:46:25.437Z,4.03
2023-05-19T08:49:30.844Z,4.60
2023-05-19T08:52:32.885Z,4.72
2023-05-19T08:55:59.083Z,3.60
2023-05-19T08:59:03.621Z,3.85
2023-05-19T09:02:06.967Z,3.60
2023-05-19T09:05:10.174Z,5.47
2023-05-19T09:08:14.275Z,4.20
2023-05-19T09:11:16.575Z,4.72
2023-05-19T09:14:18.894Z,4.10
2023-05-19T09:17:21.099Z,4.10
2023-05-19T09:20:23.250Z,3.70
2023-05-19T09:23:28.775Z,4.82
2023-05-19T09:26:38.257Z,5.53
2023-05-19T09:29:40.686Z,4.65
2023-05-19T09:32:44.081Z,4.67
2023-05-19T09:35:49.248Z,4.30
2023-05-19T09:38:51.930Z,4.70
2023-05-19T09:42:06.938Z,3.67
2023-05-19T09:45:09.562Z,4.47
2023-05-19T09:48:11.738Z,4.10
2023-05-19T09:51:13.932Z,4.50
2023-05-19T09:54:24.079Z,4.63
2023-05-19T09:57:28.368Z,4.68
2023-05-19T10:00:32.848Z,4.40
2023-05-19T10:03:35.295Z,4.60
2023-05-19T10:06:37.638Z,5.20
2023-05-19T10:09:41.037Z,4.22
2023-05-19T10:12:43.444Z,3.90
2023-05-19T10:18:57.999Z,4.07
2023-05-19T10:22:00.318Z,4.60
2023-05-19T10:25:02.728Z,4.35
2023-05-19T10:28:28.165Z,4.40
2023-05-19T10:31:31.809Z,5.28
2023-05-19T10:34:53.558Z,5.07
2023-05-19T10:38:11.438Z,4.87
2023-05-19T10:41:27.161Z,4.45
2023-05-19T10:44:42.666Z,3.88
2023-05-19T10:47:45.149Z,4.40
2023-05-19T10:50:47.473Z,4.30
2023-05-19T10:53:50.339Z,4.20
2023-05-19T10:56:56.890Z,3.78
2023-05-19T11:00:07.756Z,4.82
2023-05-19T11:03:17.844Z,4.50
2023-05-19T11:06:24.705Z,4.77
2023-05-19T11:09:37.819Z,4.40
2023-05-19T11:12:43.345Z,4.07
2023-05-19T11:15:45.540Z,3.90
2023-05-19T11:18:48.671Z,3.20
2023-05-19T11:22:00.847Z,4.20
2023-05-19T11:25:04.157Z,5.77
2023-05-19T11:28:06.904Z,4.40
2023-05-19T11:31:10.427Z,4.65
2023-05-19T11:34:14.048Z,3.92
2023-05-19T11:37:16.349Z,3.20
2023-05-19T11:40:18.634Z,3.40
2023-05-19T11:43:23.142Z,4.53
2023-05-19T11:46:25.402Z,3.53
2023-05-19T11:49:28.746Z,4.00
2023-05-19T11:52:31.170Z,4.20
2023-05-19T11:55:33.343Z,3.77
2023-05-19T11:58:37.250Z,3.90
2023-05-19T12:01:39.422Z,3.88
2023-05-19T12:04:41.589Z,4.28
2023-05-19T12:07:44.418Z,4.10
2023-05-19T12:10:52.516Z,3.73
2023-05-19T12:14:01.454Z,4.55
2023-05-19T12:17:13.435Z,3.88
2023-05-19T12:20:15.638Z,3.97
2023-05-19T12:23:17.848Z,3.77
2023-05-19T12:26:22.403Z,3.63
2023-05-19T12:29:28.248Z,4.20
2023-05-19T12:32:30.353Z,3.72
2023-05-19T12:35:36.507Z,4.43
2023-05-19T12:38:39.698Z,4.00
2023-05-19T12:41:44.705Z,3.97
2023-05-19T12:44:47.879Z,3.50
2023-05-19T12:47:50.539Z,4.28
2023-05-19T12:50:56.184Z,3.92
2023-05-19T12:53:58.314Z,4.13
2023-05-19T12:57:00.543Z,4.10
2023-05-19T13:00:02.593Z,4.28
2023-05-19T13:03:05.891Z,4.10
2023-05-19T13:06:08.338Z,4.15
2023-05-19T13:09:10.917Z,4.93
2023-05-19T13:12:13.002Z,4.10
2023-05-19T13:15:15.155Z,3.92
2023-05-19T13:18:17.720Z,4.55
2023-05-19T13:21:19.808Z,4.20
2023-05-19T13:24:21.902Z,4.27
2023-05-19T13:27:24.868Z,4.83
2023-05-19T13:30:27.994Z,5.13
2023-05-19T13:33:30.135Z,4.25
2023-05-19T13:36:33.464Z,4.50
2023-05-19T13:39:35.736Z,4.67
2023-05-19T13:42:38.119Z,4.70
2023-05-19T13:45:42.269Z,4.30
2023-05-19T13:48:44.315Z,4.28
2023-05-19T13:51:46.367Z,4.53
2023-05-19T13:54:48.652Z,4.20
2023-05-19T13:57:51.056Z,4.40
2023-05-19T14:00:54.855Z,4.60
2023-05-19T14:03:57.230Z,5.82
2023-05-19T14:06:59.502Z,5.05
2023-05-19T14:10:02.321Z,4.73
2023-05-19T14:13:29.893Z,4.07
2023-05-19T14:16:28.744Z,4.65
2023-05-19T14:19:30.932Z,4.93
2023-05-19T14:22:32.952Z,4.13
2023-05-19T14:25:35.107Z,4.03
2023-05-19T14:28:37.198Z,4.90
2023-05-19T14:31:39.392Z,4.88
2023-05-19T14:34:41.589Z,5.57
2023-05-19T14:37:43.991Z,4.20
2023-05-19T14:40:46.135Z,4.00
2023-05-19T14:43:48.918Z,3.90
2023-05-19T14:46:51.279Z,4.38
2023-05-19T14:49:53.338Z,4.47
2023-05-19T14:52:55.438Z,5.50
2023-05-19T14:55:57.538Z,5.70
2023-05-19T14:58:59.640Z,4.80
2023-05-19T15:02:01.691Z,4.72
2023-05-19T15:05:03.901Z,5.53
2023-05-19T15:08:06.449Z,4.32
2023-05-19T15:11:08.664Z,4.50
2023-05-19T15:14:10.714Z,4.27
2023-05-19T15:17:12.773Z,4.57
2023-05-19T15:20:14.877Z,4.72
2023-05-19T15:23:16.985Z,4.40
2023-05-19T15:26:19.033Z,4.53
2023-05-19T15:29:21.241Z,4.60
2023-05-19T15:32:23.373Z,3.80
2023-05-19T15:35:25.487Z,4.10
2023-05-19T15:38:29.230Z,4.18
2023-05-19T15:41:32.173Z,4.83
2023-05-19T15:44:36.526Z,4.03
2023-05-19T15:47:38.630Z,4.53
2023-05-19T15:50:41.142Z,3.90
2023-05-19T15:53:43.283Z,4.20
2023-05-19T15:56:45.531Z,4.63
2023-05-19T15:59:47.642Z,4.30
2023-05-19T16:02:49.798Z,3.90
2023-05-19T16:05:52.864Z,4.45
2023-05-19T16:08:54.979Z,4.25
2023-05-19T16:11:57.072Z,4.07
2023-05-19T16:14:59.182Z,4.20
2023-05-19T16:18:01.307Z,4.47
2023-05-19T16:21:03.577Z,5.45
2023-05-19T16:24:05.850Z,4.50
2023-05-19T16:27:07.933Z,4.40
2023-05-19T16:30:10.296Z,3.83
2023-05-19T16:33:12.569Z,4.50
2023-05-19T16:36:14.693Z,4.22
2023-05-19T16:39:16.864Z,4.40
2023-05-19T16:42:18.919Z,4.10
2023-05-19T16:45:20.996Z,3.87
2023-05-19T16:48:23.042Z,4.20
2023-05-19T16:51:25.177Z,4.40
2023-05-19T16:54:28.477Z,4.80
2023-05-19T16:57:30.660Z,7.07
2023-05-19T17:00:32.932Z,4.93
2023-05-19T17:03:36.065Z,4.97
2023-05-19T17:06:38.190Z,4.82
2023-05-19T17:09:40.357Z,4.85
2023-05-19T17:12:42.653Z,5.03
2023-05-19T17:15:44.779Z,4.67
2023-05-19T17:18:48.130Z,5.13
2023-05-19T17:21:50.223Z,4.78
2023-05-19T17:24:52.387Z,4.70
2023-05-19T17:27:55.815Z,5.00
2023-05-19T17:30:57.874Z,5.13
2023-05-19T17:33:59.917Z,5.68
2023-05-19T17:37:02.025Z,4.85
2023-05-19T17:40:04.313Z,4.55
2023-05-19T17:43:08.223Z,5.30
2023-05-19T17:46:10.381Z,5.80
2023-05-19T17:49:13.725Z,5.30
2023-05-19T17:52:16.814Z,5.68
2023-05-19T17:55:19.170Z,5.90
2023-05-19T17:58:21.420Z,5.80
2023-05-19T18:01:25.839Z,6.07
2023-05-19T18:04:28.317Z,5.18
2023-05-19T18:07:31.510Z,5.88
2023-05-19T18:10:37.747Z,5.88
2023-05-19T18:13:39.856Z,6.60
2023-05-19T18:16:42.040Z,6.83
2023-05-19T18:19:44.246Z,7.75
2023-05-19T18:22:47.072Z,8.95
2023-05-19T18:25:50.526Z,8.57
2023-05-19T18:28:52.627Z,8.80
2023-05-19T18:31:54.719Z,7.57
2023-05-19T18:34:56.788Z,7.97
2023-05-19T18:37:58.806Z,7.63
2023-05-19T18:41:00.965Z,7.43
2023-05-19T18:44:03.073Z,6.40
2023-05-19T18:47:05.305Z,8.00
2023-05-19T18:50:07.706Z,7.65
2023-05-19T18:53:09.784Z,7.25
2023-05-19T18:56:12.465Z,7.18
2023-05-19T18:59:14.563Z,7.90
2023-05-19T19:02:16.647Z,17.63
2023-05-19T19:05:18.742Z,19.33
2023-05-19T19:08:20.907Z,18.85
2023-05-19T19:11:23.009Z,14.25
2023-05-19T19:14:25.081Z,12.50
2023-05-19T19:17:27.509Z,10.60
2023-05-19T19:20:29.982Z,11.00
2023-05-19T19:23:32.099Z,9.70
2023-05-19T19:26:34.204Z,9.70
2023-05-19T19:29:36.329Z,8.80
2023-05-19T19:32:38.529Z,8.80
2023-05-19T19:35:40.707Z,8.13
2023-05-19T19:38:42.779Z,7.95
2023-05-19T19:41:44.972Z,7.15
2023-05-19T19:44:47.056Z,8.57
2023-05-19T19:47:49.204Z,7.03
2023-05-19T19:50:53.796Z,6.93
2023-05-19T19:53:56.015Z,6.63
2023-05-19T19:56:58.113Z,6.72
2023-05-19T20:00:07.761Z,8.13
2023-05-19T20:03:10.277Z,7.77
2023-05-19T20:06:12.361Z,7.68
2023-05-19T20:09:14.456Z,8.15
2023-05-19T20:12:16.549Z,10.02
2023-05-19T20:15:18.702Z,9.60
2023-05-19T20:18:20.779Z,9.10
2023-05-19T20:21:22.913Z,10.15
2023-05-19T20:24:25.071Z,9.15
2023-05-19T20:27:27.351Z,8.52
2023-05-19T20:30:29.491Z,8.83
2023-05-19T20:33:31.937Z,8.30
2023-05-19T20:36:34.061Z,9.00
2023-05-19T20:39:36.110Z,9.52
2023-05-19T20:42:39.237Z,8.82
2023-05-19T20:45:43.048Z,8.97
2023-05-19T20:48:45.126Z,8.70
2023-05-19T20:51:47.178Z,8.77
2023-05-19T20:54:49.218Z,9.00
2023-05-19T20:57:51.286Z,9.35
2023-05-19T21:00:57.745Z,9.50
2023-05-19T21:04:01.126Z,10.30
2023-05-19T21:07:03.302Z,10.75
2023-05-19T21:10:05.790Z,10.43
2023-05-19T21:13:07.913Z,9.43
2023-05-19T21:16:10.582Z,9.53
2023-05-19T21:19:12.787Z,9.17
2023-05-19T21:22:14.856Z,9.77
2023-05-19T21:25:17.242Z,9.55
2023-05-19T21:28:19.347Z,9.48
2023-05-19T21:31:21.502Z,9.77
2023-05-19T21:34:23.693Z,9.63
2023-05-19T21:37:25.954Z,9.75
2023-05-19T21:40:28.054Z,10.63
2023-05-19T21:43:30.191Z,10.82
2023-05-19T21:46:32.348Z,10.20
2023-05-19T21:49:34.763Z,11.00
2023-05-19T21:52:38.286Z,10.57
2023-05-19T21:55:40.431Z,10.20
2023-05-19T21:58:42.548Z,11.13
2023-05-19T22:01:44.713Z,11.17
2023-05-19T22:04:46.921Z,10.43
2023-05-19T22:07:48.986Z,12.10
2023-05-19T22:10:51.859Z,12.15
2023-05-19T22:13:54.919Z,11.60
2023-05-19T22:16:57.044Z,11.50
2023-05-19T22:19:59.135Z,11.37
2023-05-19T22:23:01.514Z,11.57
2023-05-19T22:26:03.691Z,11.75
2023-05-19T22:29:05.762Z,11.23
2023-05-19T22:32:11.889Z,11.37
2023-05-19T22:35:14.143Z,12.43
2023-05-19T22:38:16.374Z,12.13
2023-05-19T22:41:18.523Z,12.32
2023-05-19T22:44:20.779Z,12.45
2023-05-19T22:47:23.002Z,12.07
2023-05-19T22:50:25.075Z,13.43
2023-05-19T22:53:27.234Z,13.23
2023-05-19T22:56:29.311Z,14.13
2023-05-19T22:59:31.524Z,14.10
2023-05-19T23:02:33.661Z,13.23
2023-05-19T23:05:36.074Z,16.00
2023-05-19T23:08:38.267Z,15.05
2023-05-19T23:11:40.340Z,12.77
2023-05-19T23:14:42.386Z,15.60
2023-05-19T23:17:44.453Z,14.53
2023-05-19T23:20:46.596Z,16.60
2023-05-19T23:23:48.731Z,15.88
2023-05-19T23:26:50.832Z,14.70
2023-05-19T23:29:52.928Z,15.02
2023-05-19T23:32:55.008Z,14.23
2023-05-19T23:35:57.848Z,14.67
2023-05-19T23:39:00.418Z,13.80
2023-05-19T23:42:02.536Z,14.73
2023-05-19T23:45:04.814Z,14.75
2023-05-19T23:48:06.936Z,13.57
2023-05-19T23:51:09.294Z,13.30
2023-05-19T23:54:11.398Z,14.05
2023-05-19T23:57:13.642Z,13.30
